createdAt,value
2018-01-29T00:02:11.069Z,83.6
2018-01-29T00:18:50.497Z,83.6
2018-01-29T00:35:29.846Z,84.0
2018-01-29T00:52:08.877Z,84.0
2018-01-29T01:08:48.753Z,84.4
2018-01-29T01:25:28.836Z,84.8
2018-01-29T01:42:07.826Z,84.8
2018-01-29T01:58:47.084Z,84.8
2018-01-29T02:15:26.224Z,84.8
2018-01-29T02:32:05.590Z,84.8
2018-01-29T02:48:44.510Z,84.8
2018-01-29T03:05:23.718Z,84.8
2018-01-29T03:22:03.213Z,84.8
2018-01-29T03:38:42.373Z,84.8
2018-01-29T03:55:21.588Z,84.8
2018-01-29T04:12:00.852Z,84.8
2018-01-29T04:45:19.628Z,83.6
2018-01-29T05:01:58.792Z,83.2
2018-01-29T05:18:39.646Z,82.8
2018-01-29T05:35:18.281Z,82.4
2018-01-29T05:51:57.216Z,82.0
2018-01-29T06:08:37.389Z,81.6
2018-01-29T06:25:16.216Z,80.8
2018-01-29T06:41:56.025Z,80.4
2018-01-29T06:58:36.806Z,80.4
2018-01-29T07:31:55.012Z,79.6
2018-01-29T07:48:34.768Z,79.2
2018-01-29T08:05:14.767Z,79.6
2018-01-29T08:21:53.730Z,79.6
2018-01-29T08:55:12.997Z,79.6
2018-01-29T09:11:52.542Z,79.2
2018-01-29T09:28:32.174Z,78.4
2018-01-29T09:45:10.978Z,78.0
2018-01-29T10:01:50.895Z,78.0
2018-01-29T10:18:30.284Z,78.0
2018-01-29T10:35:09.266Z,78.4
2018-01-29T11:08:28.473Z,78.8
2018-01-29T11:25:07.887Z,78.8
2018-01-29T11:41:47.329Z,78.0
2018-01-29T11:58:29.936Z,77.2
2018-01-29T12:15:06.414Z,76.0
2018-01-29T12:31:46.165Z,76.0
2018-01-29T12:48:25.917Z,74.4
2018-01-29T13:05:05.832Z,74.0
2018-01-29T13:21:46.045Z,74.0
2018-01-29T13:38:26.437Z,73.6
2018-01-29T13:55:06.507Z,73.6
2018-01-29T14:11:47.132Z,73.6
2018-01-29T14:28:26.623Z,74.0
2018-01-29T14:45:06.543Z,73.6
2018-01-29T15:18:25.469Z,74.8
2018-01-29T15:35:05.417Z,75.2
2018-01-29T15:51:45.043Z,76.8
2018-01-29T16:08:23.984Z,78.0
2018-01-29T16:41:42.987Z,80.0
2018-01-29T16:58:20.551Z,80.0
2018-01-29T17:14:59.754Z,80.4
2018-01-29T17:31:38.102Z,81.2
2018-01-29T17:48:17.130Z,81.6
2018-01-29T18:04:56.542Z,82.4
2018-01-29T18:21:33.735Z,82.4
2018-01-29T18:38:12.171Z,82.0
2018-01-29T18:54:49.668Z,82.0
2018-01-29T19:11:27.555Z,82.4
2018-01-29T19:28:05.511Z,81.6
2018-01-29T19:44:43.168Z,81.6
2018-01-29T20:01:20.232Z,80.8
2018-01-29T20:17:58.656Z,80.4
2018-01-29T20:34:35.975Z,80.8
2018-01-29T20:51:13.049Z,80.0
2018-01-29T21:07:50.810Z,79.6
2018-01-29T21:24:27.280Z,79.6
2018-01-29T21:41:03.689Z,79.2
2018-01-29T21:57:40.693Z,78.8
2018-01-29T22:14:17.359Z,78.8
2018-01-29T22:30:54.857Z,78.4
2018-01-29T22:47:31.065Z,78.4
2018-01-29T23:04:07.986Z,78.4
2018-01-29T23:20:44.702Z,78.4
2018-01-29T23:37:21.505Z,78.4
2018-01-29T23:53:58.250Z,77.6
